Time;durP1;ratioP1;P1;durP2;ratioP2;P2;SDS_P1;SDS_P2;PMS_P1;PMS_P2;Temp;Humidity;BMP_temperature;BMP_pressure;BME280_temperature;BME280_humidity;BME280_pressure;Samples;Min_cycle;Max_cycle;Signal;HPM_P1;HPM_P2
2022/03/22 00:00:23;;;;;;;27.37;14.40;;;1.80;99.90;;;;;;5047173;28;20115;-79
2022/03/22 00:02:48;;;;;;;31.70;14.97;;;1.70;99.90;;;;;;5051332;28;20021;-79
2022/03/22 00:05:15;;;;;;;23.67;13.50;;;1.60;99.90;;;;;;5051178;28;20517;-78
2022/03/22 00:07:42;;;;;;;24.93;15.00;;;1.50;99.90;;;;;;5050171;28;20399;-78
2022/03/22 00:10:09;;;;;;;32.20;16.43;;;1.50;99.90;;;;;;5050989;28;20025;-78
2022/03/22 00:12:35;;;;;;;28.97;15.27;;;1.40;99.90;;;;;;5051277;28;20027;-79
2022/03/22 00:15:02;;;;;;;33.90;16.13;;;1.30;99.90;;;;;;5051166;28;20025;-78
2022/03/22 00:17:28;;;;;;;26.37;15.20;;;1.20;99.90;;;;;;5049679;28;20036;-78
2022/03/22 00:19:54;;;;;;;25.90;15.10;;;1.20;99.90;;;;;;5050650;28;20389;-78
2022/03/22 00:22:20;;;;;;;26.37;15.53;;;1.10;99.90;;;;;;5049230;28;20117;-78
2022/03/22 00:24:46;;;;;;;26.87;15.20;;;1.10;99.90;;;;;;5050102;28;20112;-78
2022/03/22 00:27:11;;;;;;;27.80;16.57;;;1.10;99.90;;;;;;5050674;28;20033;-79
2022/03/22 00:29:37;;;;;;;31.13;15.87;;;1.10;99.90;;;;;;5050656;28;20025;-78
2022/03/22 00:32:03;;;;;;;29.90;15.97;;;1.10;99.90;;;;;;5050672;28;20036;-79
2022/03/22 00:34:28;;;;;;;31.33;16.37;;;1.10;99.90;;;;;;5050456;28;20024;-79
2022/03/22 00:36:58;;;;;;;25.17;15.93;;;1.10;99.90;;;;;;5051638;28;20465;-79
2022/03/22 00:39:25;;;;;;;30.50;15.67;;;1.10;99.90;;;;;;5054360;28;20025;-79
2022/03/22 00:41:52;;;;;;;26.87;15.87;;;1.00;99.90;;;;;;5054430;28;20017;-78
2022/03/22 00:44:18;;;;;;;26.73;14.57;;;1.00;99.90;;;;;;5054590;28;20063;-78
2022/03/22 00:46:43;;;;;;;25.10;15.10;;;0.90;99.90;;;;;;5054335;28;20091;-78
2022/03/22 00:49:09;;;;;;;28.43;15.37;;;0.90;99.90;;;;;;5054305;28;20025;-78
2022/03/22 00:51:35;;;;;;;33.10;18.00;;;0.90;99.90;;;;;;5052737;28;20028;-79
2022/03/22 00:54:03;;;;;;;34.40;17.97;;;0.80;99.90;;;;;;5053419;28;20021;-78
2022/03/22 00:56:31;;;;;;;27.20;16.37;;;0.80;99.90;;;;;;5053869;28;20017;-78
2022/03/22 01:01:44;;;;;;;22.43;14.57;;;0.90;99.90;;;;;;5034688;28;20036;-77
2022/03/22 01:04:10;;;;;;;24.50;14.63;;;0.90;99.90;;;;;;5034566;28;20025;-77
2022/03/22 01:06:38;;;;;;;23.67;14.20;;;0.90;99.90;;;;;;5032741;28;20083;-77
2022/03/22 01:09:07;;;;;;;25.20;14.77;;;0.80;99.90;;;;;;5034534;28;20115;-77
2022/03/22 01:11:32;;;;;;;25.07;14.70;;;0.80;99.90;;;;;;5034994;28;20037;-77
2022/03/22 01:14:01;;;;;;;30.33;15.80;;;0.70;99.90;;;;;;5051691;28;20409;-78
2022/03/22 01:16:31;;;;;;;26.30;14.43;;;0.60;99.90;;;;;;5054672;28;20036;-78
2022/03/22 01:19:02;;;;;;;29.10;14.70;;;0.60;99.90;;;;;;5052842;28;20071;-77
2022/03/22 01:21:28;;;;;;;26.30;14.80;;;0.60;99.90;;;;;;5054121;28;20539;-78
2022/03/22 01:23:54;;;;;;;26.63;14.13;;;0.60;99.90;;;;;;5052934;28;20021;-78
2022/03/22 01:26:21;;;;;;;23.67;14.57;;;0.60;99.90;;;;;;5053789;28;20112;-78
2022/03/22 01:28:50;;;;;;;25.57;14.07;;;0.60;99.90;;;;;;5052533;28;20033;-78
2022/03/22 01:31:16;;;;;;;24.37;14.07;;;0.50;99.90;;;;;;5054082;28;20021;-77
2022/03/22 01:33:42;;;;;;;24.53;13.07;;;0.60;99.90;;;;;;5053964;28;20070;-77
2022/03/22 01:36:10;;;;;;;23.53;14.07;;;0.60;99.90;;;;;;5052391;28;20029;-77
2022/03/22 01:38:38;;;;;;;21.50;12.63;;;0.60;99.90;;;;;;5053840;28;20404;-77
2022/03/22 01:41:04;;;;;;;26.67;12.87;;;0.60;99.90;;;;;;5053792;28;20425;-77
2022/03/22 01:43:30;;;;;;;26.13;13.13;;;0.60;99.90;;;;;;5053862;28;20087;-77
2022/03/22 01:45:56;;;;;;;23.87;12.47;;;0.60;99.90;;;;;;5053701;28;20021;-77
2022/03/22 01:48:22;;;;;;;21.70;13.60;;;0.70;99.90;;;;;;5051448;28;20028;-77
2022/03/22 01:50:47;;;;;;;22.50;13.57;;;0.60;99.90;;;;;;5052230;28;20033;-78
2022/03/22 01:53:13;;;;;;;28.97;15.40;;;0.60;99.90;;;;;;5053561;28;20017;-78
2022/03/22 01:55:39;;;;;;;23.80;14.50;;;0.50;99.90;;;;;;5048604;28;20021;-78
2022/03/22 01:58:05;;;;;;;27.27;15.73;;;0.50;99.90;;;;;;5046088;28;20052;-77
2022/03/22 02:00:31;;;;;;;28.07;16.77;;;0.40;99.90;;;;;;5052282;28;20029;-78
2022/03/22 02:05:54;;;;;;;25.00;14.33;;;0.40;99.90;;;;;;5053419;28;20032;-77
2022/03/22 02:08:25;;;;;;;24.73;14.80;;;0.40;99.90;;;;;;5053364;28;20343;-77
2022/03/22 02:10:51;;;;;;;27.13;15.27;;;0.30;99.90;;;;;;5051863;28;20052;-78
2022/03/22 02:13:19;;;;;;;33.73;16.47;;;0.30;99.90;;;;;;5053493;28;20056;-78
2022/03/22 02:15:52;;;;;;;29.20;16.47;;;0.30;99.90;;;;;;5052985;28;20025;-78
2022/03/22 02:18:18;;;;;;;26.87;15.27;;;0.20;99.90;;;;;;5053075;28;20486;-77
2022/03/22 02:20:45;;;;;;;23.87;14.27;;;0.20;99.90;;;;;;5053242;28;20097;-78
2022/03/22 02:23:14;;;;;;;28.13;15.50;;;0.10;99.90;;;;;;5052967;28;20025;-78
2022/03/22 02:25:39;;;;;;;28.57;15.87;;;0.00;99.90;;;;;;5052962;28;20062;-78
2022/03/22 02:28:05;;;;;;;28.57;14.23;;;-0.10;99.90;;;;;;5052717;28;20036;-78
2022/03/22 02:30:32;;;;;;;27.43;14.70;;;-0.10;99.90;;;;;;5052490;28;20017;-78
2022/03/22 02:33:01;;;;;;;23.80;13.77;;;-0.20;99.90;;;;;;5052934;28;20036;-78
2022/03/22 02:35:28;;;;;;;24.30;13.57;;;-0.20;99.90;;;;;;5052667;28;20028;-78
2022/03/22 02:37:57;;;;;;;25.33;13.23;;;-0.20;99.90;;;;;;5052771;28;20021;-78
2022/03/22 02:40:26;;;;;;;23.97;14.17;;;-0.30;99.90;;;;;;5052882;28;20119;-77
2022/03/22 02:42:54;;;;;;;22.53;13.10;;;-0.30;99.90;;;;;;5051494;28;20527;-77
2022/03/22 02:45:21;;;;;;;22.53;13.33;;;-0.30;99.90;;;;;;5051151;28;20098;-77
2022/03/22 02:47:47;;;;;;;23.87;13.10;;;-0.30;99.90;;;;;;5052611;28;20051;-77
2022/03/22 02:50:16;;;;;;;24.53;13.17;;;-0.30;99.90;;;;;;5051201;28;20392;-77
2022/03/22 02:52:42;;;;;;;20.80;12.77;;;-0.40;99.90;;;;;;5051501;28;20366;-77
2022/03/22 02:55:09;;;;;;;23.03;13.23;;;-0.40;99.90;;;;;;5051011;28;20107;-77
2022/03/22 02:57:37;;;;;;;27.90;13.57;;;-0.40;99.90;;;;;;5052171;28;20440;-77
2022/03/22 03:00:08;;;;;;;22.97;13.43;;;-0.40;99.90;;;;;;5047101;28;20046;-77
2022/03/22 03:02:40;;;;;;;24.77;13.23;;;-0.40;99.90;;;;;;5046014;28;20041;-77
2022/03/22 03:05:09;;;;;;;22.10;13.83;;;-0.40;99.90;;;;;;5052806;28;20029;-77
2022/03/22 03:07:37;;;;;;;28.20;13.90;;;-0.40;99.90;;;;;;5052482;28;20032;-77
2022/03/22 03:10:04;;;;;;;22.27;13.73;;;-0.40;99.90;;;;;;5052191;28;20041;-77
2022/03/22 03:12:30;;;;;;;22.43;13.70;;;-0.40;99.90;;;;;;5050908;28;20033;-77
2022/03/22 03:14:55;;;;;;;20.87;13.53;;;-0.40;99.90;;;;;;5052193;28;20032;-77
2022/03/22 03:17:21;;;;;;;23.30;13.37;;;-0.40;99.90;;;;;;5050359;28;20398;-77
2022/03/22 03:19:47;;;;;;;23.60;14.47;;;-0.40;99.90;;;;;;5052049;28;20378;-77
2022/03/22 03:22:12;;;;;;;22.83;13.87;;;-0.50;99.90;;;;;;5052095;28;20045;-77
2022/03/22 03:24:38;;;;;;;24.20;13.63;;;-0.50;99.90;;;;;;5051518;28;20037;-77
2022/03/22 03:27:04;;;;;;;26.37;14.03;;;-0.60;99.90;;;;;;5051544;28;20393;-78
2022/03/22 03:29:30;;;;;;;26.70;14.73;;;-0.60;99.90;;;;;;5051457;28;20113;-79
2022/03/22 03:31:56;;;;;;;29.10;14.17;;;-0.60;99.90;;;;;;5050261;28;20377;-79
2022/03/22 03:34:21;;;;;;;22.17;13.10;;;-0.70;99.90;;;;;;5051119;28;20032;-79
2022/03/22 03:36:47;;;;;;;23.87;13.80;;;-0.70;99.90;;;;;;5050383;28;20039;-79
2022/03/22 03:39:13;;;;;;;22.37;13.87;;;-0.70;99.90;;;;;;5050069;28;20036;-79
2022/03/22 03:41:56;;;;;;;25.00;14.40;;;-0.70;99.90;;;;;;5050164;28;20029;-79
2022/03/22 03:47:13;;;;;;;25.27;12.93;;;-0.80;99.90;;;;;;5051469;28;20503;-79
2022/03/22 03:49:42;;;;;;;28.40;14.10;;;-0.80;99.90;;;;;;5049877;28;20083;-79
2022/03/22 03:52:20;;;;;;;24.77;13.10;;;-0.80;99.90;;;;;;5051310;28;20048;-79
2022/03/22 03:54:46;;;;;;;24.47;13.40;;;-0.80;99.90;;;;;;5051015;28;20031;-79
2022/03/22 03:57:13;;;;;;;30.00;16.00;;;-0.80;99.90;;;;;;5050687;28;20049;-79
2022/03/22 03:59:39;;;;;;;26.53;14.40;;;-0.80;99.90;;;;;;5031478;28;20033;-79
2022/03/22 04:02:06;;;;;;;22.57;13.70;;;-0.80;99.90;;;;;;5029742;28;20037;-79
2022/03/22 04:04:32;;;;;;;21.83;13.03;;;-0.80;99.90;;;;;;5031184;28;20107;-79
2022/03/22 04:06:58;;;;;;;23.37;13.47;;;-0.90;99.90;;;;;;5032166;28;20056;-79
2022/03/22 04:09:23;;;;;;;22.63;14.30;;;-0.90;99.90;;;;;;5051082;28;20068;-79
2022/03/22 04:11:49;;;;;;;21.93;12.60;;;-0.90;99.90;;;;;;5050504;28;20056;-79
2022/03/22 04:14:15;;;;;;;21.53;13.50;;;-1.00;99.90;;;;;;5050985;28;20075;-79
2022/03/22 04:16:41;;;;;;;22.80;12.80;;;-1.00;99.90;;;;;;5051232;28;20028;-79
2022/03/22 04:19:09;;;;;;;22.53;13.73;;;-1.00;99.90;;;;;;5049468;28;20120;-78
2022/03/22 04:21:37;;;;;;;23.83;12.93;;;-1.10;99.90;;;;;;5049523;28;20029;-79
2022/03/22 04:24:07;;;;;;;22.83;13.23;;;-1.10;99.90;;;;;;5050865;28;20241;-79
2022/03/22 04:26:35;;;;;;;21.97;13.13;;;-1.10;99.90;;;;;;5050677;28;20040;-79
2022/03/22 04:34:29;;;;;;;22.83;13.30;;;-1.20;99.90;;;;;;5050822;28;20494;-78
2022/03/22 04:36:55;;;;;;;24.73;13.83;;;-1.20;99.90;;;;;;5050572;28;20037;-79
2022/03/22 04:39:23;;;;;;;25.10;14.77;;;-1.20;99.90;;;;;;5050072;28;20029;-78
2022/03/22 04:41:49;;;;;;;33.67;13.97;;;-1.30;99.90;;;;;;5050618;28;20717;-78
2022/03/22 04:44:16;;;;;;;25.63;13.60;;;-1.30;99.90;;;;;;5050423;28;20025;-78
2022/03/22 04:46:42;;;;;;;20.83;12.80;;;-1.30;99.90;;;;;;5050303;28;20136;-79
2022/03/22 04:49:08;;;;;;;25.23;14.20;;;-1.40;99.90;;;;;;5048806;28;20529;-79
2022/03/22 04:57:02;;;;;;;25.90;14.50;;;-1.40;99.90;;;;;;5050892;28;20151;-79
2022/03/22 04:59:28;;;;;;;35.53;14.83;;;-1.40;99.90;;;;;;5033268;28;20032;-78
2022/03/22 05:01:54;;;;;;;25.47;13.73;;;-1.40;99.90;;;;;;5030627;28;20029;-79
2022/03/22 05:04:19;;;;;;;22.93;13.67;;;-1.40;99.90;;;;;;5030347;28;20026;-79
2022/03/22 05:06:45;;;;;;;22.30;12.73;;;-1.40;99.90;;;;;;5029406;28;20130;-78
2022/03/22 05:09:11;;;;;;;20.73;13.83;;;-1.40;99.90;;;;;;5050490;28;20021;-78
2022/03/22 05:11:37;;;;;;;29.57;14.57;;;-1.40;99.90;;;;;;5065127;28;20028;-78
2022/03/22 05:14:03;;;;;;;27.87;14.13;;;-1.40;99.90;;;;;;5049178;28;20033;-76
2022/03/22 05:16:29;;;;;;;28.23;14.77;;;-1.40;99.90;;;;;;5061288;28;20021;-76
2022/03/22 05:18:56;;;;;;;22.50;13.67;;;-1.40;99.90;;;;;;5061359;28;20025;-76
2022/03/22 05:21:23;;;;;;;23.17;13.97;;;-1.50;99.90;;;;;;5061294;28;20025;-76
2022/03/22 05:23:48;;;;;;;28.80;13.60;;;-1.50;99.90;;;;;;5055577;28;20087;-76
2022/03/22 05:26:14;;;;;;;21.07;13.10;;;-1.50;99.90;;;;;;5064367;28;20454;-76
2022/03/22 05:28:40;;;;;;;26.53;13.90;;;-1.50;99.90;;;;;;5067141;28;20111;-76
2022/03/22 05:31:09;;;;;;;32.43;14.90;;;-1.50;99.90;;;;;;5063718;28;20035;-76
2022/03/22 05:33:36;;;;;;;26.73;14.53;;;-1.50;99.90;;;;;;5061892;28;20028;-76
2022/03/22 05:36:03;;;;;;;28.20;14.20;;;-1.40;99.90;;;;;;5061308;28;20016;-76
2022/03/22 05:38:28;;;;;;;32.80;18.57;;;-1.50;99.90;;;;;;5060774;28;20354;-76
2022/03/22 05:40:55;;;;;;;28.93;14.50;;;-1.40;99.90;;;;;;5061247;28;20027;-75
2022/03/22 05:43:21;;;;;;;27.57;14.73;;;-1.40;99.90;;;;;;5070686;28;20453;-76
2022/03/22 05:45:48;;;;;;;24.43;14.43;;;-1.30;99.90;;;;;;5060608;28;20029;-76
2022/03/22 05:48:15;;;;;;;25.57;13.90;;;-1.30;99.90;;;;;;5063433;28;20115;-76
2022/03/22 05:50:40;;;;;;;26.53;13.80;;;-1.20;99.90;;;;;;5069269;28;20020;-77
2022/03/22 05:53:06;;;;;;;28.30;14.13;;;-1.20;99.90;;;;;;5066981;28;20457;-78
2022/03/22 05:55:31;;;;;;;27.80;14.67;;;-1.20;99.90;;;;;;5054906;28;20018;-78
2022/03/22 05:57:57;;;;;;;25.67;14.10;;;-1.20;99.90;;;;;;5050360;28;20025;-77
2022/03/22 06:00:23;;;;;;;28.53;14.27;;;-1.20;99.90;;;;;;5053848;28;20366;-79
2022/03/22 06:02:48;;;;;;;26.50;13.43;;;-1.10;99.90;;;;;;5063637;28;20500;-75
2022/03/22 06:05:16;;;;;;;31.53;13.80;;;-1.10;99.90;;;;;;5063056;28;20035;-75
2022/03/22 06:07:43;;;;;;;24.53;13.77;;;-1.10;99.90;;;;;;5062662;28;20047;-75
2022/03/22 06:10:12;;;;;;;23.83;13.13;;;-1.10;99.90;;;;;;5062687;28;20028;-77
2022/03/22 06:12:51;;;;;;;25.00;13.70;;;-1.00;99.90;;;;;;5046519;28;20037;-79
2022/03/22 06:15:28;;;;;;;27.03;14.60;;;-1.00;99.90;;;;;;5053388;28;20020;-79
2022/03/22 06:17:58;;;;;;;26.37;14.47;;;-0.90;99.90;;;;;;5055938;28;20021;-80
2022/03/22 06:20:27;;;;;;;32.57;18.00;;;-0.80;99.90;;;;;;5058626;28;20040;-79
2022/03/22 06:22:53;;;;;;;33.30;14.87;;;-0.80;99.90;;;;;;5056031;28;20029;-79
2022/03/22 06:25:19;;;;;;;27.43;15.60;;;-0.70;99.90;;;;;;5063476;28;20131;-80
2022/03/22 06:27:47;;;;;;;26.30;14.97;;;-0.60;99.90;;;;;;5065111;28;20037;-80
2022/03/22 06:30:15;;;;;;;21.50;13.50;;;-0.50;99.90;;;;;;5060817;28;20116;-80
2022/03/22 06:32:49;;;;;;;28.07;15.23;;;-0.40;99.90;;;;;;5060668;28;20103;-80
2022/03/22 06:35:17;;;;;;;20.40;13.75;;;-0.30;99.90;;;;;;5061088;28;20025;-80
2022/03/22 06:37:46;;;;;;;20.17;13.50;;;-0.20;99.90;;;;;;5067996;28;20040;-80
2022/03/22 06:40:13;;;;;;;32.83;15.60;;;-0.10;99.90;;;;;;5066840;28;20032;-80
2022/03/22 06:42:40;;;;;;;21.83;13.83;;;-0.10;99.90;;;;;;5060327;28;20032;-80
2022/03/22 06:45:06;;;;;;;23.17;13.87;;;0.00;99.90;;;;;;5069273;28;20037;-80
2022/03/22 06:47:33;;;;;;;25.43;14.63;;;0.10;99.90;;;;;;5034717;28;20522;-79
2022/03/22 06:49:59;;;;;;;23.27;13.30;;;0.20;99.90;;;;;;5048256;28;20024;-79
2022/03/22 06:52:26;;;;;;;23.87;13.87;;;0.30;99.90;;;;;;5051050;28;20528;-79
2022/03/22 06:54:51;;;;;;;22.33;14.23;;;0.40;99.90;;;;;;5052928;28;20096;-77
2022/03/22 06:57:17;;;;;;;25.37;14.07;;;0.60;99.90;;;;;;5048761;28;20033;-76
2022/03/22 06:59:42;;;;;;;21.57;13.73;;;0.70;99.90;;;;;;5054796;28;20045;-76
2022/03/22 07:02:08;;;;;;;22.57;14.17;;;0.80;99.90;;;;;;5029202;28;20025;-76
2022/03/22 07:04:34;;;;;;;23.87;14.10;;;1.10;99.90;;;;;;5031440;28;20547;-77
2022/03/22 07:07:00;;;;;;;25.37;15.13;;;1.30;99.90;;;;;;5050080;28;20033;-77
2022/03/22 07:09:28;;;;;;;24.77;14.23;;;1.50;99.90;;;;;;5047957;28;20381;-76
2022/03/22 07:11:56;;;;;;;20.67;13.97;;;1.70;99.90;;;;;;5049955;28;20126;-76
2022/03/22 07:14:26;;;;;;;24.57;14.60;;;1.90;99.90;;;;;;5045636;28;20021;-78
2022/03/22 07:16:52;;;;;;;29.70;15.73;;;2.10;99.90;;;;;;5048931;28;20024;-78
2022/03/22 07:19:19;;;;;;;28.43;17.73;;;2.30;99.90;;;;;;5049657;28;20032;-78
2022/03/22 07:21:46;;;;;;;26.37;15.97;;;2.50;99.90;;;;;;5049108;28;20033;-78
2022/03/22 07:24:13;;;;;;;28.57;15.77;;;2.60;99.90;;;;;;5049527;28;20017;-78
2022/03/22 07:26:40;;;;;;;22.77;14.10;;;2.90;99.90;;;;;;5048750;28;20029;-78
2022/03/22 07:29:06;;;;;;;25.20;13.50;;;3.20;99.90;;;;;;5048710;28;20074;-78
2022/03/22 07:31:37;;;;;;;20.07;12.10;;;3.20;99.90;;;;;;5048331;28;20128;-78
2022/03/22 07:34:05;;;;;;;18.40;11.10;;;3.50;99.90;;;;;;5048944;28;20029;-78
2022/03/22 07:36:31;;;;;;;16.00;11.17;;;3.50;99.90;;;;;;5058964;28;20031;-78
2022/03/22 07:38:56;;;;;;;19.10;10.83;;;3.60;99.90;;;;;;5068012;28;20145;-78
2022/03/22 07:41:22;;;;;;;19.57;11.10;;;3.60;99.90;;;;;;5068565;28;20033;-78
2022/03/22 07:43:47;;;;;;;18.10;11.47;;;3.70;99.90;;;;;;5068803;28;20086;-78
2022/03/22 07:46:13;;;;;;;21.00;11.33;;;4.10;99.90;;;;;;5051822;28;20101;-81
2022/03/22 07:48:39;;;;;;;114.07;47.43;;;4.20;99.90;;;;;;5064134;28;20032;-81
2022/03/22 07:53:49;;;;;;;29.00;15.10;;;4.30;99.90;;;;;;5064304;28;20425;-81
2022/03/22 07:56:14;;;;;;;44.63;22.23;;;4.40;99.90;;;;;;5062728;28;20029;-81
2022/03/22 07:58:41;;;;;;;77.17;34.13;;;4.50;99.90;;;;;;5052526;28;20136;-81
2022/03/22 08:01:07;;;;;;;24.50;14.27;;;4.70;99.90;;;;;;5034734;28;20074;-81
2022/03/22 08:03:32;;;;;;;22.03;11.80;;;4.70;99.90;;;;;;5055478;28;20029;-81
2022/03/22 08:06:00;;;;;;;22.00;12.90;;;4.70;99.90;;;;;;5049691;28;20029;-81
2022/03/22 08:08:25;;;;;;;28.83;12.70;;;4.90;99.90;;;;;;5066664;28;20100;-81
2022/03/22 08:10:51;;;;;;;21.47;12.00;;;5.00;99.90;;;;;;5058991;28;20067;-81
2022/03/22 08:13:17;;;;;;;21.43;11.73;;;5.00;99.90;;;;;;5048303;28;20021;-81
2022/03/22 08:15:43;;;;;;;23.87;11.30;;;5.50;99.90;;;;;;5049547;28;20025;-81
2022/03/22 08:18:10;;;;;;;18.53;11.10;;;5.80;99.90;;;;;;5061032;28;20111;-81
2022/03/22 08:20:36;;;;;;;26.90;11.37;;;5.60;99.90;;;;;;5062253;28;20474;-81
2022/03/22 08:23:04;;;;;;;24.33;11.50;;;5.70;99.90;;;;;;5048191;28;20025;-81
2022/03/22 08:25:32;;;;;;;20.17;11.57;;;5.70;99.90;;;;;;5046933;28;20059;-81
2022/03/22 08:28:00;;;;;;;25.10;11.90;;;5.80;99.90;;;;;;5046949;28;20035;-82
2022/03/22 08:30:26;;;;;;;21.03;11.53;;;6.10;99.90;;;;;;5046527;28;20087;-82
2022/03/22 08:32:54;;;;;;;18.33;11.17;;;6.10;99.90;;;;;;5046272;28;20029;-81
2022/03/22 08:35:21;;;;;;;23.93;11.33;;;6.00;99.90;;;;;;5047360;28;20025;-81
2022/03/22 08:37:49;;;;;;;23.80;11.73;;;6.10;99.90;;;;;;5046419;28;20139;-81
2022/03/22 08:40:15;;;;;;;19.47;11.23;;;6.30;99.90;;;;;;5045839;28;20113;-81
2022/03/22 08:42:43;;;;;;;20.57;11.13;;;6.30;99.90;;;;;;5047372;28;20091;-81
2022/03/22 08:45:11;;;;;;;20.00;11.70;;;6.50;99.90;;;;;;5046211;28;20449;-82
2022/03/22 08:47:36;;;;;;;24.40;11.80;;;6.70;99.90;;;;;;5047251;28;20068;-81
2022/03/22 08:50:05;;;;;;;22.00;12.03;;;6.90;99.90;;;;;;5048341;28;20068;-81
2022/03/22 08:52:32;;;;;;;19.33;10.43;;;7.00;99.90;;;;;;5048651;28;20458;-80
2022/03/22 08:54:57;;;;;;;17.40;10.30;;;7.30;99.90;;;;;;5046876;28;20029;-80
2022/03/22 08:57:23;;;;;;;20.73;11.37;;;7.50;99.90;;;;;;5046820;28;20079;-80
2022/03/22 08:59:49;;;;;;;20.63;10.50;;;7.50;99.90;;;;;;5048005;28;20108;-78
2022/03/22 09:02:14;;;;;;;23.23;10.20;;;7.80;99.90;;;;;;5051435;28;20036;-79
2022/03/22 09:07:24;;;;;;;20.77;11.33;;;8.20;99.90;;;;;;5051179;28;20063;-79
2022/03/22 09:09:50;;;;;;;19.57;12.13;;;8.20;99.90;;;;;;5050630;28;20140;-79
2022/03/22 09:12:15;;;;;;;22.10;11.73;;;8.30;99.90;;;;;;5051297;28;20025;-79
2022/03/22 09:14:41;;;;;;;16.83;11.00;;;8.50;99.90;;;;;;5051297;28;20033;-80
2022/03/22 09:17:06;;;;;;;16.17;11.03;;;9.00;99.90;;;;;;5049343;28;20552;-79
2022/03/22 09:19:34;;;;;;;19.47;10.80;;;9.80;99.90;;;;;;5049566;28;20025;-79
2022/03/22 09:22:00;;;;;;;18.77;10.50;;;10.20;99.90;;;;;;5049702;28;20029;-79
2022/03/22 09:24:26;;;;;;;19.73;11.90;;;10.00;99.90;;;;;;5050545;28;20103;-79
2022/03/22 09:26:51;;;;;;;20.57;11.30;;;10.10;99.90;;;;;;5050688;28;20029;-80
2022/03/22 09:29:17;;;;;;;17.20;11.77;;;10.30;99.90;;;;;;5050773;28;20028;-79
2022/03/22 09:31:42;;;;;;;23.70;10.98;;;10.50;99.60;;;;;;5050471;28;20044;-79
2022/03/22 09:34:10;;;;;;;18.35;11.02;;;10.70;99.10;;;;;;5048909;28;20024;-80
2022/03/22 09:36:37;;;;;;;18.55;11.43;;;11.10;96.70;;;;;;5051533;28;20029;-81
2022/03/22 09:39:04;;;;;;;16.40;10.35;;;10.80;97.70;;;;;;5051083;28;20511;-80
2022/03/22 09:41:31;;;;;;;16.83;10.60;;;11.40;96.00;;;;;;5058583;28;20032;-80
2022/03/22 09:43:58;;;;;;;24.48;11.18;;;12.10;94.40;;;;;;5053610;28;20060;-80
2022/03/22 09:46:24;;;;;;;18.98;10.20;;;12.00;94.00;;;;;;5056683;28;20504;-81
2022/03/22 09:48:50;;;;;;;19.48;10.93;;;12.60;92.20;;;;;;5059963;28;20029;-80
2022/03/22 09:54:01;;;;;;;17.73;10.07;;;12.40;91.60;;;;;;5071187;28;20036;-80
2022/03/22 09:56:30;;;;;;;17.10;10.40;;;12.90;90.20;;;;;;5057915;28;20775;-80
2022/03/22 09:59:00;;;;;;;14.88;10.43;;;12.90;90.60;;;;;;5045062;28;20029;-80
2022/03/22 10:01:26;;;;;;;17.58;9.95;;;13.20;88.20;;;;;;5050447;28;20028;-80
2022/03/22 10:04:00;;;;;;;17.55;10.77;;;13.40;86.10;;;;;;5049673;28;20113;-80
2022/03/22 10:06:27;;;;;;;16.92;9.68;;;13.40;85.50;;;;;;5056584;28;20069;-80
2022/03/22 10:08:53;;;;;;;19.85;10.23;;;13.10;82.40;;;;;;5059140;28;20040;-81
2022/03/22 10:11:20;;;;;;;16.38;10.18;;;13.10;86.00;;;;;;5050423;28;20028;-80
2022/03/22 10:13:52;;;;;;;14.23;10.18;;;12.90;84.90;;;;;;5049035;28;20033;-80
2022/03/22 10:16:18;;;;;;;14.60;9.68;;;13.90;82.70;;;;;;5050525;28;20021;-80
2022/03/22 10:18:44;;;;;;;20.02;10.20;;;13.90;82.60;;;;;;5050396;28;20036;-79
2022/03/22 10:21:09;;;;;;;12.45;9.45;;;13.70;81.90;;;;;;5050398;28;20503;-79
2022/03/22 10:23:51;;;;;;;16.95;10.63;;;14.50;78.00;;;;;;5049104;28;20037;-80
2022/03/22 10:26:17;;;;;;;18.35;10.63;;;14.60;76.30;;;;;;5050422;28;20033;-80
2022/03/22 10:28:54;;;;;;;16.38;9.80;;;14.20;78.10;;;;;;5050515;28;20044;-80
2022/03/22 10:31:31;;;;;;;18.17;10.10;;;14.60;76.40;;;;;;5049830;28;20025;-80
2022/03/22 10:33:57;;;;;;;20.25;10.25;;;15.20;74.80;;;;;;5049937;28;20025;-81
2022/03/22 10:36:23;;;;;;;13.77;9.40;;;15.30;72.70;;;;;;5048575;28;20375;-81
2022/03/22 10:38:53;;;;;;;19.23;10.40;;;15.30;71.90;;;;;;5048642;28;20079;-81
2022/03/22 10:41:24;;;;;;;17.42;9.60;;;15.30;71.30;;;;;;5048707;28;20037;-80
2022/03/22 10:44:04;;;;;;;15.40;9.43;;;15.80;71.20;;;;;;5049904;28;20446;-81
2022/03/22 10:46:29;;;;;;;17.67;9.52;;;16.00;69.70;;;;;;5050116;28;20147;-81
2022/03/22 10:49:21;;;;;;;20.13;9.80;;;16.30;69.10;;;;;;5049909;28;20182;-80
2022/03/22 10:51:49;;;;;;;13.70;9.82;;;16.30;65.40;;;;;;5046521;28;20136;-79
2022/03/22 10:54:17;;;;;;;16.10;9.60;;;16.00;65.10;;;;;;5048361;28;20029;-80
2022/03/22 10:56:56;;;;;;;16.20;9.48;;;15.90;65.70;;;;;;5050738;28;20102;-80
2022/03/22 10:59:25;;;;;;;17.98;9.80;;;16.30;64.60;;;;;;5044679;28;20029;-81
2022/03/22 11:01:52;;;;;;;18.48;9.32;;;16.70;62.80;;;;;;5043060;28;20362;-80
2022/03/22 11:04:21;;;;;;;18.20;10.18;;;17.00;61.50;;;;;;5048057;28;20039;-80
2022/03/22 11:06:48;;;;;;;19.33;10.35;;;16.40;62.00;;;;;;5049476;28;20029;-80
2022/03/22 11:09:15;;;;;;;14.07;9.40;;;16.50;63.10;;;;;;5053628;28;20113;-80
2022/03/22 11:11:41;;;;;;;17.88;9.70;;;16.50;64.00;;;;;;5048848;28;20032;-80
2022/03/22 11:14:07;;;;;;;18.75;9.50;;;16.50;61.60;;;;;;5049370;28;20101;-81
2022/03/22 11:16:34;;;;;;;12.48;9.63;;;16.40;62.40;;;;;;5048875;28;20060;-80
2022/03/22 11:19:00;;;;;;;16.27;9.27;;;17.20;60.00;;;;;;5048979;28;20462;-80
2022/03/22 11:21:29;;;;;;;13.10;8.88;;;17.00;59.30;;;;;;5048487;28;20048;-80
2022/03/22 11:24:07;;;;;;;11.88;8.82;;;17.30;58.30;;;;;;5047448;28;20025;-80
2022/03/22 11:26:42;;;;;;;17.77;9.48;;;16.90;58.90;;;;;;5047289;28;20037;-80
2022/03/22 11:29:14;;;;;;;15.02;9.48;;;17.10;58.30;;;;;;5048208;28;20059;-80
2022/03/22 11:31:41;;;;;;;12.20;9.43;;;17.00;58.90;;;;;;5047409;28;20082;-81
2022/03/22 11:34:11;;;;;;;12.05;9.00;;;17.40;59.80;;;;;;5048250;28;20043;-80
2022/03/22 11:36:44;;;;;;;13.30;9.32;;;17.80;58.40;;;;;;5048090;28;20024;-81
2022/03/22 11:39:14;;;;;;;15.45;8.95;;;17.70;57.90;;;;;;5048519;28;20064;-80
2022/03/22 11:44:34;;;;;;;14.25;8.63;;;17.60;57.00;;;;;;5041263;28;20124;-80
2022/03/22 11:47:03;;;;;;;18.00;8.85;;;18.10;55.80;;;;;;5048128;28;20037;-81
2022/03/22 11:49:29;;;;;;;10.52;7.95;;;18.00;54.20;;;;;;5048280;28;20369;-81
2022/03/22 11:51:57;;;;;;;18.48;12.02;;;17.50;54.60;;;;;;5048599;28;20025;-81
2022/03/22 11:54:26;;;;;;;12.80;8.18;;;17.10;56.10;;;;;;5047820;28;20124;-81
2022/03/22 11:56:58;;;;;;;14.88;8.80;;;17.80;55.30;;;;;;5048817;28;20381;-81
2022/03/22 11:59:25;;;;;;;13.00;8.15;;;18.00;55.50;;;;;;5040449;28;20521;-81
2022/03/22 12:02:02;;;;;;;12.95;8.20;;;17.70;54.50;;;;;;5047751;28;20045;-81
2022/03/22 12:04:37;;;;;;;12.80;8.93;;;18.40;55.50;;;;;;5051120;28;20111;-81
2022/03/22 12:07:05;;;;;;;11.88;7.60;;;18.80;53.50;;;;;;5048212;28;20477;-81
2022/03/22 12:09:30;;;;;;;12.40;8.23;;;19.00;52.60;;;;;;5047868;28;20037;-79
2022/03/22 12:11:56;;;;;;;14.85;8.27;;;19.00;52.50;;;;;;5048482;28;20032;-80
2022/03/22 12:14:30;;;;;;;12.20;7.90;;;18.90;51.90;;;;;;5048504;28;20151;-80
2022/03/22 12:16:59;;;;;;;14.50;8.45;;;19.20;51.30;;;;;;5048466;28;20105;-80
2022/03/22 12:19:26;;;;;;;14.98;7.75;;;19.00;51.20;;;;;;5056203;28;20025;-80
2022/03/22 12:21:54;;;;;;;9.13;7.10;;;19.30;50.20;;;;;;5047887;28;20048;-80
2022/03/22 12:24:34;;;;;;;14.13;6.93;;;19.30;49.80;;;;;;5045824;28;20090;-80
2022/03/22 12:27:02;;;;;;;9.38;6.70;;;19.30;48.60;;;;;;5045982;28;20102;-80
2022/03/22 12:29:27;;;;;;;12.93;7.10;;;18.90;48.60;;;;;;5046565;28;20120;-80
2022/03/22 12:31:54;;;;;;;10.65;7.50;;;19.20;47.10;;;;;;5048122;28;20108;-79
2022/03/22 12:34:26;;;;;;;10.80;6.95;;;19.20;47.40;;;;;;5050849;28;20017;-80
2022/03/22 12:36:52;;;;;;;8.80;6.82;;;19.10;48.10;;;;;;5050598;28;20464;-80
2022/03/22 12:39:18;;;;;;;9.65;6.80;;;19.30;47.70;;;;;;5051634;28;20028;-80
2022/03/22 12:41:44;;;;;;;9.80;7.15;;;19.20;46.80;;;;;;5052443;28;20104;-80
2022/03/22 12:44:10;;;;;;;9.45;7.13;;;19.30;47.20;;;;;;5052014;28;20127;-80
2022/03/22 12:46:36;;;;;;;11.23;6.88;;;19.30;46.20;;;;;;5051803;28;20428;-80
2022/03/22 12:49:03;;;;;;;11.10;6.88;;;19.20;46.90;;;;;;5058456;28;20033;-81
2022/03/22 12:51:31;;;;;;;10.57;6.68;;;19.20;48.20;;;;;;5050945;28;20029;-80
2022/03/22 12:53:57;;;;;;;9.35;6.88;;;19.20;46.50;;;;;;5050299;28;20086;-80
2022/03/22 12:56:23;;;;;;;10.90;7.03;;;19.00;47.40;;;;;;5051172;28;20428;-80
2022/03/22 12:58:49;;;;;;;9.07;6.60;;;19.10;47.00;;;;;;5048978;28;20040;-80
2022/03/22 13:01:16;;;;;;;11.65;6.70;;;19.20;47.00;;;;;;5040106;28;20025;-80
2022/03/22 13:03:44;;;;;;;13.30;7.13;;;19.10;47.00;;;;;;5051233;28;20108;-79